Dupont, Ohio
Current Conditions -  °F | °C
As of 1:53 PM on Sunday 23 Nov 2014 (Local Time) from KDFI Reporting Station
Broken Clouds Broken Clouds  
Wind Chill: 59°   Ceiling: 7000
Heat Index: 59°   Visibility: 10mi
Dew Point: 48°   Wind: 10mph
Humidity: 67%   Direction: 170°S
Pressure: 29.73"   Gusts: 17mph
Location:  41.06°N, 84.3°W
Report Text: KDFI 231853Z AUTO 17009G15KT 10SM BKN070 15/09 A2973 RMK AO2 SLP068 T01500089
Loading
Personal Weather Stations






























Interactive Weather Map New forecast layout! Learn more

10-Day Weather Forecast

Advertisements
Track Severe Weather on mobile